Air Resources Laboratory banner image
Air Resources Laboratory web site National Oceanic and Atmospheric Administration (NOAA)

ms metar


KGLH 211653Z VRB04KT 10SM CLR 09/01 A3042 RMK AO2 SLP312 T00890006=
KGPT 211653Z VRB04KT 10SM CLR 13/04 A3034 RMK AO2 SLP274 T01330044=
KGTR 211656Z 35005KT 10SM CLR 09/03 A3041 RMK AO2 SLP299 T00940033=
KGWO 211653Z AUTO 10SM CLR 10/00 A3042 RMK AO2 SLP300 T01000000 $=
KHBG 211653Z AUTO 04007KT 10SM CLR 12/03 A3037 RMK AO2 SLP283 T01220028=
KHEZ 211656Z AUTO 07005KT 10SM CLR 12/05 A3038 RMK AO2 SLP294 T01220050=
KHKS 211653Z 00000KT 10SM CLR 11/04 A3039 RMK AO2 SLP286 T01110039=
KJAN 211654Z 05004KT 10SM CLR 11/03 A3039 RMK AO2 SLP291 T01110033 $=
KLUL 211655Z AUTO 06007KT 10SM CLR 11/03 A3038 RMK AO2 T01130030=
KMCB 211653Z AUTO VRB03KT 10SM CLR 13/03 A3036 RMK AO2 SLP279 T01280028=
KMEI 211658Z 02007KT 10SM CLR 13/03 A3037 RMK AO2 SLP285 T01280028=
KNMM 211656Z VRB04KT 10SM SCT300 11/03 A3039 RMK AO2 SLP303 T01110028 $=
KOLV 211650Z 35003KT 10SM SKC 08/01 A3040=
KPIB 211656Z AUTO VRB04KT 10SM CLR 12/04 A3037 RMK AO2 SLP286 T01220044=
KPQL 211653Z 03006KT 10SM CLR 14/04 A3034 RMK AO2 SLP276 T01390039=
KTUP 211653Z 33005KT 10SM CLR 09/M02 A3040 RMK AO2 SLP294 T00891017=
KUOX 211655Z AUTO VRB04KT 10SM CLR 09/M01 A3042 RMK AO2=
KVKS 211655Z AUTO 35006KT 3SM HZ CLR 11/05 A3040 RMK A01=